Time;durP1;ratioP1;P1;durP2;ratioP2;P2;SDS_P1;SDS_P2;PMS_P1;PMS_P2;Temp;Humidity;BMP_temperature;BMP_pressure;BME280_temperature;BME280_humidity;BME280_pressure;Samples;Min_cycle;Max_cycle;Signal;HPM_P1;HPM_P2
2020/12/15 00:01:05;;;;;;;1.65;1.17;;;6.60;99.90;;;;;;4386042;32;20495;-58
2020/12/15 00:03:30;;;;;;;0.55;0.55;;;6.60;99.90;;;;;;4395023;32;20078;-57
2020/12/15 00:05:56;;;;;;;0.70;0.70;;;6.60;99.90;;;;;;4391593;32;20141;-56
2020/12/15 00:08:21;;;;;;;0.90;0.90;;;6.60;99.90;;;;;;4387339;32;20078;-54
2020/12/15 00:10:47;;;;;;;1.12;0.65;;;6.60;99.90;;;;;;4396593;32;20562;-56
2020/12/15 00:13:12;;;;;;;0.37;0.37;;;6.60;99.90;;;;;;4401238;32;20069;-57
2020/12/15 00:15:38;;;;;;;0.35;0.35;;;6.50;99.90;;;;;;4400911;32;20566;-58
2020/12/15 00:18:03;;;;;;;1.40;0.52;;;6.40;99.90;;;;;;4392619;32;20088;-58
2020/12/15 00:20:30;;;;;;;0.43;0.43;;;6.40;99.90;;;;;;4400638;32;20070;-58
2020/12/15 00:22:55;;;;;;;0.80;0.80;;;6.30;99.90;;;;;;4400255;32;20066;-57
2020/12/15 00:25:21;;;;;;;1.02;0.93;;;6.30;99.90;;;;;;4399187;32;20073;-58
2020/12/15 00:27:46;;;;;;;0.50;0.50;;;6.30;99.90;;;;;;4399893;32;20117;-58
2020/12/15 00:30:13;;;;;;;0.70;0.70;;;6.30;99.90;;;;;;4387358;32;20067;-55
2020/12/15 00:32:38;;;;;;;0.60;0.60;;;6.30;99.90;;;;;;4389469;32;20526;-58
2020/12/15 00:35:05;;;;;;;0.52;0.45;;;6.20;99.90;;;;;;4400536;32;20121;-58
2020/12/15 00:37:37;;;;;;;2.80;0.80;;;6.10;99.90;;;;;;4400114;32;20070;-57
2020/12/15 00:40:04;;;;;;;0.60;0.60;;;6.20;99.90;;;;;;4388471;32;20117;-55
2020/12/15 00:42:29;;;;;;;0.82;0.82;;;6.20;99.90;;;;;;4395634;32;20074;-60
2020/12/15 00:44:55;;;;;;;2.67;0.98;;;6.20;99.90;;;;;;4400155;32;20066;-56
2020/12/15 00:47:20;;;;;;;0.62;0.62;;;6.10;99.90;;;;;;4399736;32;20067;-55
2020/12/15 00:49:46;;;;;;;1.15;0.70;;;6.10;99.90;;;;;;4389209;32;20074;-55
2020/12/15 00:52:11;;;;;;;5.68;1.58;;;6.00;99.90;;;;;;4386499;32;20151;-57
2020/12/15 00:54:37;;;;;;;1.52;1.42;;;6.00;99.90;;;;;;4400156;32;20121;-56
2020/12/15 00:57:02;;;;;;;0.60;0.60;;;6.00;99.90;;;;;;4400911;32;20074;-54
2020/12/15 00:59:28;;;;;;;0.50;0.50;;;6.00;99.90;;;;;;4391654;32;20125;-57
2020/12/15 01:01:58;;;;;;;0.55;0.55;;;6.00;99.90;;;;;;4384851;32;20074;-56
2020/12/15 01:04:23;;;;;;;3.25;0.90;;;5.90;99.90;;;;;;4386187;32;21388;-56
2020/12/15 01:06:49;;;;;;;0.40;0.40;;;5.80;99.90;;;;;;4385717;32;20075;-59
2020/12/15 01:09:15;;;;;;;0.40;0.40;;;5.90;99.90;;;;;;4388777;32;20090;-56
2020/12/15 01:11:40;;;;;;;0.75;0.75;;;5.70;99.90;;;;;;4399355;32;20532;-57
2020/12/15 01:14:06;;;;;;;0.50;0.50;;;5.70;99.90;;;;;;4397358;32;20169;-57
2020/12/15 01:16:31;;;;;;;0.85;0.60;;;5.80;99.90;;;;;;4400330;32;20282;-54
2020/12/15 01:18:57;;;;;;;1.00;0.70;;;5.80;99.90;;;;;;4391448;32;20174;-57
2020/12/15 01:21:27;;;;;;;0.68;0.68;;;5.70;99.90;;;;;;4400191;32;20066;-57
2020/12/15 01:23:53;;;;;;;;;;;5.80;99.90;;;;;;4387338;32;20090;-53
2020/12/15 01:26:20;;;;;;;0.77;0.77;;;5.70;99.90;;;;;;4384872;32;19942;-56
2020/12/15 01:28:45;;;;;;;1.65;1.25;;;5.70;99.90;;;;;;4385863;32;20512;-58
2020/12/15 01:31:11;;;;;;;0.43;0.43;;;5.70;99.90;;;;;;4386132;32;20099;-58
2020/12/15 01:33:37;;;;;;;0.50;0.50;;;5.70;99.90;;;;;;4384500;32;20078;-57
2020/12/15 01:36:02;;;;;;;0.50;0.50;;;5.70;99.90;;;;;;4384834;32;20583;-57
2020/12/15 01:38:28;;;;;;;2.17;0.80;;;5.70;99.90;;;;;;4384951;32;20070;-56
2020/12/15 01:40:53;;;;;;;1.10;1.10;;;5.70;99.90;;;;;;4399181;32;20061;-57
2020/12/15 01:43:18;;;;;;;1.23;1.10;;;5.70;99.90;;;;;;4399333;32;20065;-57
2020/12/15 01:45:44;;;;;;;0.55;0.55;;;5.80;99.90;;;;;;4398730;32;20094;-55
2020/12/15 01:48:11;;;;;;;0.43;0.43;;;5.70;99.90;;;;;;4398823;32;20573;-53
2020/12/15 01:50:37;;;;;;;8.15;1.50;;;5.70;99.90;;;;;;4386210;32;20165;-56
2020/12/15 01:53:09;;;;;;;0.50;0.47;;;5.70;99.90;;;;;;4392900;32;20125;-58
2020/12/15 01:55:37;;;;;;;0.40;0.40;;;5.60;99.90;;;;;;4399795;32;20078;-54
2020/12/15 01:58:03;;;;;;;9.23;1.12;;;5.70;99.90;;;;;;4397284;32;20070;-57
2020/12/15 02:00:29;;;;;;;0.75;0.60;;;5.60;99.90;;;;;;4388929;32;20122;-58
2020/12/15 02:02:55;;;;;;;0.75;0.75;;;5.60;99.90;;;;;;4382991;32;20141;-56
2020/12/15 02:05:20;;;;;;;0.50;0.50;;;5.60;99.90;;;;;;4387112;32;20087;-57
2020/12/15 02:07:46;;;;;;;1.05;0.75;;;5.70;99.90;;;;;;4397495;32;20514;-57
2020/12/15 02:10:12;;;;;;;0.50;0.50;;;5.70;99.90;;;;;;4392447;32;20531;-58
2020/12/15 02:12:38;;;;;;;0.88;0.80;;;5.60;99.90;;;;;;4393479;32;20066;-58
2020/12/15 02:15:05;;;;;;;2.03;1.35;;;5.60;99.90;;;;;;4399736;32;20070;-58
2020/12/15 02:17:30;;;;;;;0.50;0.50;;;5.50;99.90;;;;;;4392774;32;20069;-55
2020/12/15 02:20:00;;;;;;;0.65;0.65;;;5.50;99.90;;;;;;4384745;32;20098;-58
2020/12/15 02:22:26;;;;;;;0.40;0.40;;;5.50;99.90;;;;;;4386407;32;20594;-58
2020/12/15 02:24:53;;;;;;;1.27;0.70;;;5.50;99.90;;;;;;4399648;32;20206;-59
2020/12/15 02:27:18;;;;;;;3.17;0.73;;;5.50;99.90;;;;;;4394819;32;20425;-56
2020/12/15 02:29:44;;;;;;;3.12;1.05;;;5.50;99.90;;;;;;4400135;32;20061;-55
2020/12/15 02:32:09;;;;;;;0.50;0.50;;;5.50;99.90;;;;;;4400190;32;20069;-56
2020/12/15 02:34:35;;;;;;;0.60;0.60;;;5.50;99.90;;;;;;4400218;32;20090;-60
2020/12/15 02:37:07;;;;;;;1.98;1.00;;;5.50;99.90;;;;;;4393048;32;20081;-58
2020/12/15 02:39:32;;;;;;;0.50;0.50;;;5.50;99.90;;;;;;4399290;32;20078;-58
2020/12/15 02:41:57;;;;;;;0.93;0.80;;;5.50;99.90;;;;;;4399164;32;20066;-56
2020/12/15 02:44:23;;;;;;;0.50;0.50;;;5.50;99.90;;;;;;4399591;32;20078;-55
2020/12/15 02:46:48;;;;;;;0.52;0.52;;;5.50;99.90;;;;;;4399274;32;20590;-57
2020/12/15 02:49:14;;;;;;;4.05;2.15;;;5.50;99.90;;;;;;4392614;32;20066;-59
2020/12/15 02:51:39;;;;;;;0.73;0.73;;;5.50;99.90;;;;;;4387997;32;20698;-55
2020/12/15 02:54:05;;;;;;;0.52;0.52;;;5.40;99.90;;;;;;4399514;32;20074;-58
2020/12/15 02:56:30;;;;;;;0.62;0.62;;;5.50;99.90;;;;;;4402696;32;20074;-58
2020/12/15 02:58:56;;;;;;;1.27;0.85;;;5.40;99.90;;;;;;4401846;32;20180;-59
2020/12/15 03:01:22;;;;;;;0.70;0.70;;;5.50;99.90;;;;;;4400513;32;20574;-57
2020/12/15 03:03:47;;;;;;;1.20;0.98;;;5.50;99.90;;;;;;4397596;32;20062;-57
2020/12/15 03:06:13;;;;;;;0.70;0.70;;;5.50;99.90;;;;;;4402463;32;20086;-54
2020/12/15 03:08:39;;;;;;;1.75;1.02;;;5.50;99.90;;;;;;4401459;32;20073;-58
2020/12/15 03:11:05;;;;;;;0.52;0.52;;;5.40;99.90;;;;;;4397254;32;20090;-55
2020/12/15 03:13:31;;;;;;;1.87;0.90;;;5.40;99.90;;;;;;4400437;32;20058;-55
2020/12/15 03:15:56;;;;;;;1.27;1.17;;;5.40;99.90;;;;;;4400856;32;20091;-58
2020/12/15 03:18:22;;;;;;;1.70;1.12;;;5.40;99.90;;;;;;4399360;32;20073;-58
2020/12/15 03:20:49;;;;;;;0.73;0.73;;;5.50;99.90;;;;;;4401983;32;20129;-56
2020/12/15 03:23:17;;;;;;;0.60;0.60;;;5.50;99.90;;;;;;4400895;32;20079;-56
2020/12/15 03:25:43;;;;;;;1.05;0.90;;;5.60;99.90;;;;;;4399352;32;20098;-59
2020/12/15 03:28:08;;;;;;;1.65;0.57;;;5.40;99.90;;;;;;4399972;32;20082;-57
2020/12/15 03:30:34;;;;;;;0.60;0.60;;;5.40;99.90;;;;;;4401486;32;20070;-56
2020/12/15 03:33:00;;;;;;;0.60;0.60;;;5.50;99.90;;;;;;4400308;32;20074;-55
2020/12/15 03:35:27;;;;;;;2.83;0.75;;;5.40;99.90;;;;;;4399317;32;20078;-58
2020/12/15 03:37:55;;;;;;;0.50;0.50;;;5.40;99.90;;;;;;4385665;32;20070;-57
2020/12/15 03:40:21;;;;;;;3.03;1.05;;;5.30;99.90;;;;;;4386198;32;20074;-56
2020/12/15 03:42:47;;;;;;;0.77;0.77;;;5.30;99.90;;;;;;4392268;32;20066;-59
2020/12/15 03:45:13;;;;;;;0.47;0.47;;;5.40;99.90;;;;;;4399748;32;20083;-57
2020/12/15 03:47:39;;;;;;;0.68;0.68;;;5.40;99.90;;;;;;4400368;32;20058;-58
2020/12/15 03:50:04;;;;;;;0.60;0.60;;;5.40;99.90;;;;;;4400624;32;20074;-54
2020/12/15 03:52:30;;;;;;;1.33;1.23;;;5.40;99.90;;;;;;4399442;32;20066;-57
2020/12/15 03:54:56;;;;;;;0.65;0.65;;;5.40;99.90;;;;;;4400371;32;20112;-59
2020/12/15 03:57:21;;;;;;;2.10;1.48;;;5.30;99.90;;;;;;4385548;32;20362;-57
2020/12/15 03:59:47;;;;;;;0.40;0.40;;;5.30;99.90;;;;;;4386259;32;20071;-58
2020/12/15 04:02:12;;;;;;;2.75;0.80;;;5.20;99.90;;;;;;4387618;32;20397;-56
2020/12/15 04:04:37;;;;;;;0.80;0.68;;;5.20;99.90;;;;;;4399731;32;20131;-58
2020/12/15 04:07:03;;;;;;;0.75;0.65;;;5.20;99.90;;;;;;4386241;32;20070;-58
2020/12/15 04:09:28;;;;;;;2.10;0.77;;;5.20;99.90;;;;;;4389610;32;20109;-56
2020/12/15 04:11:54;;;;;;;1.30;1.15;;;5.10;99.90;;;;;;4400006;32;20070;-58
2020/12/15 04:14:19;;;;;;;0.90;0.80;;;5.00;99.90;;;;;;4401506;32;20117;-59
2020/12/15 04:16:45;;;;;;;0.50;0.50;;;5.00;99.90;;;;;;4399982;32;20086;-57
2020/12/15 04:19:10;;;;;;;0.60;0.60;;;5.00;99.90;;;;;;4399160;32;20078;-57
2020/12/15 04:21:36;;;;;;;2.05;1.15;;;4.90;99.90;;;;;;4400389;32;20523;-59
2020/12/15 04:24:02;;;;;;;0.73;0.73;;;4.90;99.90;;;;;;4388002;32;20083;-55
2020/12/15 04:26:28;;;;;;;0.55;0.55;;;4.90;99.90;;;;;;4385908;32;20480;-55
2020/12/15 04:28:53;;;;;;;0.95;0.75;;;4.90;99.90;;;;;;4390480;32;20069;-55
2020/12/15 04:31:19;;;;;;;0.77;0.77;;;4.80;99.90;;;;;;4400979;32;20480;-54
2020/12/15 04:33:44;;;;;;;0.93;0.85;;;4.80;99.90;;;;;;4400132;32;20066;-57
2020/12/15 04:36:10;;;;;;;0.62;0.62;;;4.70;99.90;;;;;;4400249;32;20070;-58
2020/12/15 04:38:35;;;;;;;0.40;0.40;;;4.60;99.90;;;;;;4401117;32;20132;-58
2020/12/15 04:41:01;;;;;;;0.55;0.55;;;4.60;99.90;;;;;;4400394;32;20117;-55
2020/12/15 04:43:30;;;;;;;0.68;0.68;;;4.60;99.90;;;;;;4400798;32;20083;-57
2020/12/15 04:45:58;;;;;;;0.70;0.70;;;4.70;99.90;;;;;;4400894;32;20081;-59
2020/12/15 04:48:24;;;;;;;0.75;0.73;;;4.60;99.90;;;;;;4400522;32;20133;-57
2020/12/15 04:50:57;;;;;;;0.35;0.35;;;4.60;99.90;;;;;;4399009;32;20082;-58
2020/12/15 04:53:26;;;;;;;0.90;0.90;;;4.60;99.90;;;;;;4400238;32;20074;-54
2020/12/15 04:55:56;;;;;;;2.08;0.88;;;4.60;99.90;;;;;;4398826;32;20074;-57
2020/12/15 04:58:23;;;;;;;0.50;0.50;;;4.60;99.90;;;;;;4400116;32;20078;-59
2020/12/15 05:00:49;;;;;;;3.20;1.37;;;4.60;99.90;;;;;;4400592;32;20073;-59
2020/12/15 05:03:20;;;;;;;0.50;0.50;;;4.60;99.90;;;;;;4399423;32;20083;-59
2020/12/15 05:05:49;;;;;;;0.40;0.40;;;4.60;99.90;;;;;;4394526;32;20125;-53
2020/12/15 05:08:15;;;;;;;0.80;0.80;;;4.60;99.90;;;;;;4399255;32;20078;-56
2020/12/15 05:10:41;;;;;;;1.40;1.02;;;4.60;99.90;;;;;;4394593;32;20499;-57
2020/12/15 05:13:06;;;;;;;0.47;0.47;;;4.70;99.90;;;;;;4400246;32;20082;-57
2020/12/15 05:15:33;;;;;;;3.62;1.17;;;4.60;99.90;;;;;;4399945;32;20095;-57
2020/12/15 05:18:03;;;;;;;0.70;0.50;;;4.70;99.90;;;;;;4398629;32;20074;-58
2020/12/15 05:20:31;;;;;;;3.03;1.67;;;4.80;99.90;;;;;;4398354;32;20121;-55
2020/12/15 05:22:57;;;;;;;1.15;0.95;;;4.70;99.90;;;;;;4389584;32;20086;-58
2020/12/15 05:25:24;;;;;;;1.27;1.17;;;4.60;99.90;;;;;;4397743;32;20142;-58
2020/12/15 05:27:50;;;;;;;1.40;1.10;;;4.70;99.90;;;;;;4409282;32;20062;-57
2020/12/15 05:30:16;;;;;;;1.85;0.85;;;4.70;99.90;;;;;;4395593;32;20130;-58
2020/12/15 05:32:49;;;;;;;0.55;0.55;;;4.80;99.90;;;;;;4399085;32;20070;-56
2020/12/15 05:35:14;;;;;;;2.33;1.33;;;4.80;99.90;;;;;;4398874;32;20093;-57
2020/12/15 05:37:44;;;;;;;0.60;0.60;;;4.80;99.90;;;;;;4398528;32;20066;-54
2020/12/15 05:40:10;;;;;;;0.60;0.60;;;4.60;99.90;;;;;;4390993;32;20124;-58
2020/12/15 05:42:37;;;;;;;5.78;2.17;;;4.60;99.90;;;;;;4371789;32;20191;-58
2020/12/15 05:45:05;;;;;;;0.70;0.70;;;4.60;99.90;;;;;;4364975;32;20566;-59
2020/12/15 05:47:33;;;;;;;5.75;2.10;;;4.70;99.90;;;;;;4376470;32;20434;-54
2020/12/15 05:49:59;;;;;;;0.90;0.90;;;4.80;99.90;;;;;;4391259;32;20074;-54
2020/12/15 05:52:26;;;;;;;0.65;0.65;;;4.80;99.90;;;;;;4371474;32;20065;-58
2020/12/15 05:55:02;;;;;;;10.55;1.62;;;4.90;99.90;;;;;;4390337;32;20062;-57
2020/12/15 05:57:30;;;;;;;0.70;0.70;;;4.90;99.90;;;;;;4398943;32;20121;-55
2020/12/15 06:00:06;;;;;;;1.73;0.95;;;4.90;99.90;;;;;;4398731;32;20069;-58
2020/12/15 06:02:31;;;;;;;1.58;1.02;;;4.90;99.90;;;;;;4386450;32;20090;-54
2020/12/15 06:04:59;;;;;;;0.68;0.68;;;4.90;99.90;;;;;;4388960;32;20089;-59
2020/12/15 06:07:26;;;;;;;0.57;0.57;;;4.90;99.90;;;;;;4396197;32;20062;-57
2020/12/15 06:09:52;;;;;;;2.42;1.55;;;4.90;99.90;;;;;;4394389;32;20121;-59
2020/12/15 06:12:18;;;;;;;0.93;0.90;;;5.00;99.90;;;;;;4396026;32;20075;-57
2020/12/15 06:14:43;;;;;;;0.68;0.60;;;4.90;99.90;;;;;;4397941;32;20134;-58
2020/12/15 06:17:09;;;;;;;0.60;0.60;;;4.90;99.90;;;;;;4395527;32;20139;-59
2020/12/15 06:19:35;;;;;;;3.87;1.30;;;4.90;99.90;;;;;;4384777;32;20501;-58
2020/12/15 06:22:01;;;;;;;0.68;0.68;;;4.90;99.90;;;;;;4398213;32;20108;-57
2020/12/15 06:24:37;;;;;;;1.95;1.80;;;4.90;99.90;;;;;;4400461;32;20086;-55
2020/12/15 06:27:04;;;;;;;0.85;0.85;;;5.00;99.90;;;;;;4399925;32;20082;-59
2020/12/15 06:29:34;;;;;;;1.48;1.02;;;5.10;99.90;;;;;;4399881;32;20426;-59
2020/12/15 06:32:03;;;;;;;2.97;0.98;;;5.10;99.90;;;;;;4387185;32;20082;-58
2020/12/15 06:34:30;;;;;;;1.12;0.70;;;5.10;99.90;;;;;;4377165;32;20097;-57
2020/12/15 06:36:57;;;;;;;1.20;0.95;;;5.10;99.90;;;;;;4390412;32;20075;-55
2020/12/15 06:39:25;;;;;;;1.05;0.82;;;5.00;99.90;;;;;;4398204;32;20067;-58
2020/12/15 06:42:01;;;;;;;0.50;0.50;;;5.10;99.90;;;;;;4396902;32;20066;-57
2020/12/15 06:44:30;;;;;;;5.03;1.33;;;5.20;99.90;;;;;;4396736;32;20074;-58
2020/12/15 06:46:57;;;;;;;1.52;0.73;;;5.20;99.90;;;;;;4393269;32;20075;-59
2020/12/15 06:49:38;;;;;;;0.75;0.75;;;5.20;99.90;;;;;;4390584;32;20152;-57
2020/12/15 06:52:05;;;;;;;0.60;0.60;;;5.20;99.90;;;;;;4389824;32;20075;-57
2020/12/15 06:54:34;;;;;;;0.50;0.50;;;5.00;99.90;;;;;;4388870;32;20126;-59
2020/12/15 06:57:03;;;;;;;2.62;1.42;;;5.10;99.90;;;;;;4388320;32;20085;-57
2020/12/15 06:59:30;;;;;;;0.75;0.62;;;5.10;99.90;;;;;;4387999;32;20137;-57
2020/12/15 07:02:15;;;;;;;3.10;1.52;;;5.20;99.90;;;;;;4385229;32;20582;-58
2020/12/15 07:04:46;;;;;;;1.33;0.95;;;5.30;99.90;;;;;;4380294;32;20101;-60
2020/12/15 07:07:13;;;;;;;1.30;0.82;;;5.30;99.90;;;;;;4382642;32;20082;-57
2020/12/15 07:09:39;;;;;;;3.95;1.30;;;5.30;99.90;;;;;;4396045;32;20140;-60
2020/12/15 07:12:20;;;;;;;0.55;0.55;;;5.30;99.90;;;;;;4390171;32;20594;-60
2020/12/15 07:14:50;;;;;;;1.10;0.98;;;5.30;99.90;;;;;;4391501;32;20074;-59
2020/12/15 07:17:16;;;;;;;1.98;0.82;;;5.30;99.90;;;;;;4390938;32;20702;-60
2020/12/15 07:19:42;;;;;;;1.42;1.20;;;5.30;99.90;;;;;;4399393;32;20167;-55
2020/12/15 07:22:08;;;;;;;1.60;1.45;;;5.20;99.90;;;;;;4387892;32;20062;-59
2020/12/15 07:24:33;;;;;;;2.50;1.87;;;5.20;99.90;;;;;;4395758;32;20083;-58
2020/12/15 07:27:01;;;;;;;24.70;1.77;;;5.30;99.90;;;;;;4384631;32;20090;-59
2020/12/15 07:29:27;;;;;;;1.50;1.40;;;5.20;99.90;;;;;;4396376;32;20444;-58
2020/12/15 07:31:52;;;;;;;1.45;1.35;;;5.20;99.90;;;;;;4387271;32;20114;-59
2020/12/15 07:34:18;;;;;;;0.57;0.57;;;5.30;99.90;;;;;;4391521;32;20073;-57
2020/12/15 07:36:46;;;;;;;4.70;0.85;;;5.30;99.90;;;;;;4394124;32;20074;-59
2020/12/15 07:39:12;;;;;;;3.42;1.23;;;5.30;99.90;;;;;;4388100;32;20094;-59
2020/12/15 07:41:38;;;;;;;1.17;1.08;;;5.30;99.90;;;;;;4392695;32;20194;-59
2020/12/15 07:44:09;;;;;;;3.90;2.05;;;5.20;99.90;;;;;;4392044;32;20495;-59
2020/12/15 07:46:35;;;;;;;1.10;1.00;;;5.10;99.90;;;;;;4387875;32;20089;-59
2020/12/15 07:49:04;;;;;;;0.52;0.52;;;5.30;99.90;;;;;;4390308;32;20073;-59
2020/12/15 07:51:31;;;;;;;0.70;0.70;;;5.40;99.90;;;;;;4391829;32;20075;-60
2020/12/15 07:53:59;;;;;;;1.00;1.00;;;5.40;99.90;;;;;;4388165;32;20090;-60
2020/12/15 07:56:25;;;;;;;0.80;0.80;;;5.30;99.90;;;;;;4379095;32;20062;-58
2020/12/15 07:58:52;;;;;;;1.33;1.23;;;5.30;99.90;;;;;;4395342;32;20098;-60
2020/12/15 08:01:27;;;;;;;0.90;0.90;;;5.30;99.90;;;;;;4378549;32;20085;-60
2020/12/15 08:04:07;;;;;;;8.88;1.40;;;5.30;99.90;;;;;;4388922;32;20515;-59
2020/12/15 08:06:36;;;;;;;2.83;1.12;;;5.30;99.90;;;;;;4394781;32;20391;-56
2020/12/15 08:09:05;;;;;;;2.05;0.93;;;5.40;99.90;;;;;;4390751;32;20078;-58
2020/12/15 08:11:30;;;;;;;0.88;0.88;;;5.40;99.90;;;;;;4377776;32;20145;-56
2020/12/15 08:13:59;;;;;;;1.85;0.88;;;5.40;99.90;;;;;;4391368;32;20069;-59
2020/12/15 08:16:26;;;;;;;1.15;0.82;;;5.40;99.90;;;;;;4390987;32;20090;-60
2020/12/15 08:19:01;;;;;;;0.60;0.60;;;5.40;99.90;;;;;;4394812;32;20074;-61
2020/12/15 08:21:40;;;;;;;1.77;1.08;;;5.30;99.90;;;;;;4388874;32;20062;-60
2020/12/15 08:24:10;;;;;;;1.50;1.08;;;5.20;99.90;;;;;;4388411;32;20087;-60
2020/12/15 08:26:36;;;;;;;1.12;1.05;;;5.30;99.90;;;;;;4388935;32;20538;-56
2020/12/15 08:29:04;;;;;;;0.75;0.75;;;5.30;99.90;;;;;;4390755;32;20098;-57
2020/12/15 08:31:41;;;;;;;1.12;0.90;;;5.30;99.90;;;;;;4387159;32;20548;-62
2020/12/15 08:34:14;;;;;;;1.20;1.12;;;5.40;99.90;;;;;;4392963;32;20118;-57
2020/12/15 08:36:42;;;;;;;5.30;1.75;;;5.40;99.90;;;;;;4376714;32;20138;-58
2020/12/15 08:39:10;;;;;;;1.67;0.82;;;5.40;99.90;;;;;;4389492;32;20070;-59
2020/12/15 08:41:49;;;;;;;1.23;1.10;;;5.40;99.90;;;;;;4392076;32;70248;-60
2020/12/15 08:44:17;;;;;;;0.70;0.70;;;5.40;99.90;;;;;;4392298;32;20441;-60
2020/12/15 08:46:44;;;;;;;2.50;0.93;;;5.40;99.90;;;;;;4391063;32;20085;-60
2020/12/15 08:49:12;;;;;;;0.70;0.70;;;5.40;99.90;;;;;;4389300;32;20058;-59
2020/12/15 08:51:40;;;;;;;0.93;0.93;;;5.40;99.90;;;;;;4389646;32;20090;-56
2020/12/15 08:54:06;;;;;;;0.70;0.70;;;5.50;99.90;;;;;;4391125;32;20070;-59
2020/12/15 08:56:34;;;;;;;1.30;1.20;;;5.50;99.90;;;;;;4385620;32;20089;-60
2020/12/15 08:59:09;;;;;;;1.90;1.62;;;5.40;99.90;;;;;;4373289;32;20082;-60
2020/12/15 09:01:35;;;;;;;1.27;1.15;;;5.50;99.90;;;;;;4371207;32;20062;-59
2020/12/15 09:04:00;;;;;;;0.70;0.70;;;5.40;99.90;;;;;;4388877;32;20058;-58
2020/12/15 09:06:34;;;;;;;1.00;0.65;;;5.40;99.90;;;;;;4386757;32;20152;-58
2020/12/15 09:09:00;;;;;;;1.48;0.93;;;5.50;99.90;;;;;;4392121;32;20385;-60
2020/12/15 09:11:26;;;;;;;0.75;0.75;;;5.50;99.90;;;;;;4386988;32;20645;-58
2020/12/15 09:13:55;;;;;;;1.23;1.00;;;5.70;99.90;;;;;;4388605;32;20762;-59
2020/12/15 09:16:25;;;;;;;1.45;1.17;;;5.80;99.90;;;;;;4387285;32;20062;-58
2020/12/15 09:18:51;;;;;;;0.57;0.57;;;5.80;99.90;;;;;;4384430;32;20062;-61
2020/12/15 09:21:18;;;;;;;0.80;0.80;;;5.90;99.90;;;;;;4388994;32;20546;-61
2020/12/15 09:23:47;;;;;;;9.27;2.83;;;6.00;99.90;;;;;;4383691;32;20408;-59
2020/12/15 09:26:12;;;;;;;2.58;0.73;;;6.10;99.90;;;;;;4387830;32;20989;-59
2020/12/15 09:28:38;;;;;;;1.10;1.10;;;6.00;99.90;;;;;;4386222;32;20525;-60
2020/12/15 09:31:03;;;;;;;2.37;1.40;;;6.10;99.90;;;;;;4391940;32;20067;-60
2020/12/15 09:33:29;;;;;;;0.85;0.85;;;6.10;99.90;;;;;;4388324;32;20425;-60
2020/12/15 09:35:54;;;;;;;1.08;0.90;;;6.10;99.90;;;;;;4387124;32;20091;-59
2020/12/15 09:38:21;;;;;;;2.37;1.30;;;6.10;99.90;;;;;;4379824;32;20487;-60
2020/12/15 09:40:47;;;;;;;0.75;0.75;;;6.20;99.90;;;;;;4388665;32;20058;-61
2020/12/15 09:43:12;;;;;;;0.65;0.65;;;6.20;99.90;;;;;;4384820;32;20070;-58
2020/12/15 09:45:38;;;;;;;0.75;0.65;;;6.30;99.90;;;;;;4382489;32;20081;-59
2020/12/15 09:48:04;;;;;;;0.60;0.60;;;6.40;99.90;;;;;;4382033;32;20136;-60
2020/12/15 09:50:30;;;;;;;1.70;1.17;;;6.40;99.90;;;;;;4386199;32;20075;-61
2020/12/15 09:52:57;;;;;;;0.85;0.82;;;6.40;99.90;;;;;;4387592;32;20058;-58
2020/12/15 09:55:23;;;;;;;2.00;1.15;;;6.50;99.90;;;;;;4383754;32;20131;-57
2020/12/15 09:57:48;;;;;;;0.80;0.80;;;6.50;99.90;;;;;;4386098;32;20065;-60
2020/12/15 10:00:15;;;;;;;0.62;0.62;;;6.50;99.90;;;;;;4384502;32;20067;-60
2020/12/15 10:02:41;;;;;;;2.85;1.20;;;6.50;99.90;;;;;;4391265;32;20070;-59
2020/12/15 10:05:10;;;;;;;1.98;1.73;;;6.60;99.90;;;;;;4388754;32;20475;-60
2020/12/15 10:07:37;;;;;;;12.07;1.23;;;6.60;99.90;;;;;;4393641;32;20062;-61
2020/12/15 10:10:03;;;;;;;1.12;1.02;;;6.60;99.90;;;;;;4391609;32;20066;-60
2020/12/15 10:12:29;;;;;;;1.37;1.08;;;6.60;99.90;;;;;;4381361;32;20099;-59
2020/12/15 10:14:54;;;;;;;0.80;0.80;;;6.60;99.90;;;;;;4391095;32;20523;-59
2020/12/15 10:17:20;;;;;;;2.20;1.10;;;6.60;99.90;;;;;;4383665;32;20098;-59
2020/12/15 10:19:45;;;;;;;2.28;2.05;;;6.60;99.90;;;;;;4396897;32;20086;-59
2020/12/15 10:22:11;;;;;;;1.30;1.20;;;6.70;99.90;;;;;;4390858;32;20603;-58
2020/12/15 10:24:36;;;;;;;6.05;1.00;;;6.70;99.90;;;;;;4389820;32;20058;-59
2020/12/15 10:27:02;;;;;;;1.17;0.90;;;6.70;99.90;;;;;;4389235;32;20078;-58
2020/12/15 10:29:29;;;;;;;3.10;0.95;;;6.70;99.90;;;;;;4388172;32;20368;-58
2020/12/15 10:31:56;;;;;;;1.42;0.85;;;6.70;99.90;;;;;;4388216;32;20137;-59
2020/12/15 10:34:22;;;;;;;1.25;0.82;;;6.70;99.90;;;;;;4390431;32;20082;-59
2020/12/15 10:36:49;;;;;;;0.95;0.95;;;6.70;99.90;;;;;;4388944;32;20071;-60
2020/12/15 10:39:15;;;;;;;0.60;0.60;;;6.70;99.90;;;;;;4386232;32;20059;-60
2020/12/15 10:41:41;;;;;;;0.43;0.43;;;6.70;99.90;;;;;;4385725;32;20484;-59
2020/12/15 10:44:14;;;;;;;1.73;1.35;;;6.80;99.90;;;;;;4390520;32;20461;-58
2020/12/15 10:46:41;;;;;;;0.50;0.50;;;6.90;99.90;;;;;;4389847;32;20063;-58
2020/12/15 10:49:07;;;;;;;1.58;0.70;;;6.90;99.90;;;;;;4390626;32;20058;-58
2020/12/15 10:51:32;;;;;;;1.85;1.25;;;6.90;99.90;;;;;;4371964;32;20130;-59
2020/12/15 10:53:58;;;;;;;0.93;0.85;;;6.90;99.90;;;;;;4389613;32;20066;-58
2020/12/15 10:56:24;;;;;;;1.12;1.02;;;6.90;99.90;;;;;;4388882;32;20129;-59
2020/12/15 10:58:50;;;;;;;1.37;0.90;;;6.90;99.90;;;;;;4394074;32;20094;-59
2020/12/15 11:01:15;;;;;;;1.75;1.37;;;7.00;99.90;;;;;;4391370;32;20066;-59
2020/12/15 11:03:40;;;;;;;0.60;0.60;;;7.10;99.90;;;;;;4386971;32;20177;-60
2020/12/15 11:06:06;;;;;;;4.78;0.98;;;7.10;99.90;;;;;;4392265;32;20054;-59
2020/12/15 11:08:32;;;;;;;0.70;0.70;;;7.10;99.90;;;;;;4391890;32;20078;-60
2020/12/15 11:10:57;;;;;;;2.83;0.95;;;7.10;99.90;;;;;;4386831;32;20074;-59
2020/12/15 11:13:23;;;;;;;0.75;0.75;;;7.20;99.90;;;;;;4388772;32;20082;-56
2020/12/15 11:15:49;;;;;;;7.25;2.33;;;7.30;99.90;;;;;;4395807;32;20132;-59
2020/12/15 11:18:14;;;;;;;0.80;0.80;;;7.30;99.90;;;;;;4391238;32;20491;-59
2020/12/15 11:20:40;;;;;;;0.30;0.30;;;7.40;99.90;;;;;;4389859;32;20070;-58
2020/12/15 11:23:05;;;;;;;0.47;0.47;;;7.30;99.90;;;;;;4393574;32;20407;-59
2020/12/15 11:25:31;;;;;;;0.43;0.43;;;7.30;99.90;;;;;;4391498;32;20070;-58
2020/12/15 11:27:57;;;;;;;6.03;0.73;;;7.30;99.90;;;;;;4384403;32;20074;-59
2020/12/15 11:30:23;;;;;;;0.80;0.80;;;7.30;99.90;;;;;;4386943;32;20114;-59
2020/12/15 11:32:49;;;;;;;1.02;1.00;;;7.30;99.90;;;;;;4386469;32;20074;-61
2020/12/15 11:35:15;;;;;;;2.85;1.10;;;7.40;99.90;;;;;;4385870;32;21182;-58
2020/12/15 11:37:42;;;;;;;0.40;0.40;;;7.50;99.90;;;;;;4382143;32;20413;-58
2020/12/15 11:40:10;;;;;;;1.70;0.88;;;7.50;99.90;;;;;;4385947;32;20644;-59
2020/12/15 11:42:39;;;;;;;0.80;0.80;;;7.60;99.90;;;;;;4388090;32;20070;-59
2020/12/15 11:45:05;;;;;;;0.37;0.37;;;7.70;99.90;;;;;;4390282;32;20090;-58
2020/12/15 11:47:31;;;;;;;1.23;0.88;;;7.80;99.90;;;;;;4386947;32;20082;-59
2020/12/15 11:49:56;;;;;;;0.60;0.60;;;7.80;99.90;;;;;;4389793;32;20070;-60
2020/12/15 11:52:23;;;;;;;0.80;0.80;;;7.90;99.90;;;;;;4391828;32;20081;-59
2020/12/15 11:54:49;;;;;;;1.87;1.17;;;7.90;99.90;;;;;;4395710;32;20165;-58
2020/12/15 11:57:16;;;;;;;1.05;0.98;;;8.00;99.90;;;;;;4388934;32;20087;-60
2020/12/15 11:59:43;;;;;;;2.55;1.08;;;8.20;99.90;;;;;;4388063;32;20071;-60
2020/12/15 12:02:08;;;;;;;4.40;2.03;;;8.30;99.90;;;;;;4383796;32;20241;-58
2020/12/15 12:04:34;;;;;;;2.83;0.62;;;8.30;99.90;;;;;;4388476;32;20102;-59
2020/12/15 12:06:59;;;;;;;0.93;0.75;;;8.30;99.90;;;;;;4393208;32;20082;-59
2020/12/15 12:09:25;;;;;;;1.45;0.80;;;8.30;99.90;;;;;;4389872;32;20121;-58
2020/12/15 12:11:50;;;;;;;2.58;1.52;;;8.40;99.90;;;;;;4386408;32;20995;-58
2020/12/15 12:14:17;;;;;;;0.82;0.82;;;8.50;99.90;;;;;;4383815;32;20498;-57
2020/12/15 12:16:43;;;;;;;1.15;1.10;;;8.40;99.90;;;;;;4392164;32;20062;-55
2020/12/15 12:19:08;;;;;;;0.80;0.80;;;8.40;99.90;;;;;;4391168;32;20145;-58
2020/12/15 12:21:34;;;;;;;0.65;0.65;;;8.30;99.90;;;;;;4386064;32;20092;-58
2020/12/15 12:24:01;;;;;;;0.93;0.65;;;8.40;99.90;;;;;;4388402;32;20070;-56
2020/12/15 12:26:27;;;;;;;0.52;0.52;;;8.20;99.90;;;;;;4392083;32;20097;-59
2020/12/15 12:28:53;;;;;;;1.10;0.90;;;8.30;99.90;;;;;;4388091;32;20137;-58
2020/12/15 12:31:19;;;;;;;1.65;1.23;;;8.20;99.90;;;;;;4378832;32;20090;-54
2020/12/15 12:33:44;;;;;;;0.40;0.40;;;8.30;99.90;;;;;;4384614;32;20086;-58
2020/12/15 12:36:10;;;;;;;1.00;0.82;;;8.30;99.90;;;;;;4388654;32;20093;-55
2020/12/15 12:38:35;;;;;;;0.90;0.82;;;8.30;99.90;;;;;;4385959;32;20259;-56
2020/12/15 12:41:02;;;;;;;1.83;1.30;;;8.30;99.90;;;;;;4389014;32;20074;-58
2020/12/15 12:43:27;;;;;;;0.95;0.85;;;8.40;99.90;;;;;;4390774;32;20662;-58
2020/12/15 12:45:53;;;;;;;3.03;1.95;;;8.40;99.90;;;;;;4392305;32;20065;-58
2020/12/15 12:48:19;;;;;;;1.10;0.90;;;8.40;99.90;;;;;;4391919;32;20089;-54
2020/12/15 12:50:45;;;;;;;1.25;0.80;;;8.40;99.90;;;;;;4395594;32;20069;-59
2020/12/15 12:53:12;;;;;;;0.75;0.75;;;8.40;99.90;;;;;;4390677;32;20088;-58
2020/12/15 12:55:38;;;;;;;2.70;0.90;;;8.50;99.90;;;;;;4390934;32;20089;-57